Time;durP1;ratioP1;P1;durP2;ratioP2;P2;SDS_P1;SDS_P2;PMS_P1;PMS_P2;Temp;Humidity;BMP_temperature;BMP_pressure;BME280_temperature;BME280_humidity;BME280_pressure;Samples;Min_cycle;Max_cycle;Signal;HPM_P1;HPM_P2
2023/09/13 00:02:12;;;;;;;25.45;20.88;;;21.20;76.10;;;;;;5056236;28;20100;-68
2023/09/13 00:04:38;;;;;;;23.50;18.88;;;21.10;76.20;;;;;;5057730;28;20029;-69
2023/09/13 00:07:13;;;;;;;25.70;20.75;;;21.10;76.30;;;;;;5057569;28;20343;-71
2023/09/13 00:09:41;;;;;;;26.02;20.38;;;21.10;76.30;;;;;;5057117;28;20047;-72
2023/09/13 00:12:10;;;;;;;24.95;19.52;;;21.10;76.20;;;;;;5056948;28;20036;-68
2023/09/13 00:14:42;;;;;;;23.50;19.25;;;21.10;76.20;;;;;;5056966;28;20053;-70
2023/09/13 00:17:08;;;;;;;24.45;19.45;;;21.10;76.20;;;;;;5056890;28;20025;-68
2023/09/13 00:19:37;;;;;;;23.00;19.08;;;21.10;76.20;;;;;;5056847;28;20094;-71
2023/09/13 00:22:04;;;;;;;23.80;19.92;;;21.20;76.10;;;;;;5057391;28;20386;-69
2023/09/13 00:24:31;;;;;;;25.27;21.52;;;21.10;76.00;;;;;;5057097;28;20033;-71
2023/09/13 00:29:44;;;;;;;24.95;19.02;;;21.10;76.10;;;;;;5056702;28;20472;-68
2023/09/13 00:32:13;;;;;;;22.73;18.50;;;21.00;76.10;;;;;;5057179;28;20029;-68
2023/09/13 00:34:40;;;;;;;22.20;18.50;;;21.00;76.20;;;;;;5057118;28;20033;-68
2023/09/13 00:37:06;;;;;;;24.10;19.70;;;21.00;76.20;;;;;;5056500;28;20036;-70
2023/09/13 00:39:32;;;;;;;25.73;18.35;;;20.90;76.30;;;;;;5039028;28;20313;-71
2023/09/13 00:42:05;;;;;;;26.88;20.33;;;20.90;76.40;;;;;;5056468;28;20033;-69
2023/09/13 00:44:31;;;;;;;25.53;20.33;;;20.90;76.50;;;;;;5056732;28;20382;-69
2023/09/13 00:46:57;;;;;;;21.42;18.25;;;20.90;76.60;;;;;;5056255;28;20275;-69
2023/09/13 00:49:23;;;;;;;27.23;21.85;;;20.90;76.60;;;;;;5056273;28;20013;-68
2023/09/13 00:51:50;;;;;;;27.13;20.80;;;20.90;76.50;;;;;;5056304;28;20025;-68
2023/09/13 00:54:16;;;;;;;23.52;19.35;;;20.90;76.50;;;;;;5056740;28;20071;-67
2023/09/13 00:56:45;;;;;;;21.02;18.73;;;20.80;76.50;;;;;;5056448;28;20025;-71
2023/09/13 00:59:12;;;;;;;26.35;20.88;;;20.80;76.50;;;;;;5055980;28;20039;-69
2023/09/13 01:01:39;;;;;;;25.60;20.60;;;20.80;76.60;;;;;;5056042;28;20048;-68
2023/09/13 01:04:05;;;;;;;28.42;22.77;;;20.70;76.60;;;;;;5055939;28;20100;-67
2023/09/13 01:06:34;;;;;;;28.65;25.27;;;20.70;76.50;;;;;;5056358;28;20454;-73
2023/09/13 01:09:03;;;;;;;25.02;20.48;;;20.60;76.70;;;;;;5055706;28;20049;-72
2023/09/13 01:11:32;;;;;;;25.20;19.70;;;20.50;77.00;;;;;;5056083;28;20036;-70
2023/09/13 01:14:01;;;;;;;24.73;20.52;;;20.50;77.10;;;;;;5055414;28;20107;-71
2023/09/13 01:16:51;;;;;;;23.70;19.63;;;20.50;77.20;;;;;;5055621;28;20025;-69
2023/09/13 01:19:17;;;;;;;27.25;21.45;;;20.50;77.30;;;;;;5056196;28;20324;-71
2023/09/13 01:21:58;;;;;;;35.50;25.90;;;20.50;77.00;;;;;;5056231;28;20101;-72
2023/09/13 01:24:56;;;;;;;34.05;27.45;;;20.50;77.30;;;;;;5055668;28;20062;-67
2023/09/13 01:27:53;;;;;;;34.08;26.92;;;20.50;77.40;;;;;;5055728;28;20032;-67
2023/09/13 01:30:22;;;;;;;31.20;25.92;;;20.40;77.60;;;;;;5038076;28;20025;-68
2023/09/13 01:32:57;;;;;;;37.78;28.92;;;20.40;77.60;;;;;;5055481;28;20017;-68
2023/09/13 01:35:23;;;;;;;35.90;27.05;;;20.40;77.70;;;;;;5055776;28;20024;-68
2023/09/13 01:37:49;;;;;;;37.75;28.73;;;20.30;77.80;;;;;;5055796;28;20021;-69
2023/09/13 01:40:17;;;;;;;33.47;26.70;;;20.30;78.00;;;;;;5038059;28;20079;-72
2023/09/13 01:42:45;;;;;;;35.35;27.52;;;20.20;78.20;;;;;;5055671;28;20090;-72
2023/09/13 01:45:13;;;;;;;36.08;27.00;;;20.20;78.30;;;;;;5055287;28;20441;-72
2023/09/13 01:47:45;;;;;;;34.42;26.02;;;20.20;78.30;;;;;;5055160;28;20021;-71
2023/09/13 01:50:12;;;;;;;30.40;25.55;;;20.20;78.30;;;;;;5055571;28;20025;-71
2023/09/13 01:52:38;;;;;;;31.23;26.02;;;20.10;78.40;;;;;;5055142;28;20070;-68
2023/09/13 01:55:06;;;;;;;32.38;24.63;;;20.20;78.30;;;;;;5055467;28;20474;-67
2023/09/13 01:57:33;;;;;;;28.45;24.17;;;20.10;78.40;;;;;;5055037;28;20374;-67
2023/09/13 01:59:59;;;;;;;27.02;22.73;;;20.10;78.40;;;;;;5055148;28;20079;-67
2023/09/13 02:02:31;;;;;;;23.45;19.92;;;20.10;78.40;;;;;;5055157;28;20025;-67
2023/09/13 02:04:57;;;;;;;29.30;21.77;;;20.10;78.50;;;;;;5055118;28;20082;-72
2023/09/13 02:07:23;;;;;;;27.48;21.40;;;20.10;78.60;;;;;;5054938;28;20096;-72
2023/09/13 02:09:57;;;;;;;25.70;20.40;;;20.10;78.60;;;;;;5054918;28;20363;-69
2023/09/13 02:12:24;;;;;;;28.98;22.23;;;20.10;78.60;;;;;;5055054;28;20017;-70
2023/09/13 02:14:50;;;;;;;24.95;19.38;;;20.10;78.50;;;;;;5055053;28;20025;-70
2023/09/13 02:17:18;;;;;;;25.27;19.95;;;20.20;78.40;;;;;;5055464;28;20056;-69
2023/09/13 02:19:49;;;;;;;26.35;19.27;;;20.10;78.30;;;;;;5054965;28;20040;-72
2023/09/13 02:22:15;;;;;;;22.25;18.83;;;20.10;78.30;;;;;;5037591;28;20029;-72
2023/09/13 02:24:42;;;;;;;23.88;18.92;;;20.10;78.40;;;;;;5055688;28;20021;-68
2023/09/13 02:27:20;;;;;;;27.00;20.17;;;20.10;78.40;;;;;;5059187;28;20147;-71
2023/09/13 02:29:45;;;;;;;22.88;18.77;;;20.10;78.40;;;;;;5059563;28;20406;-70
2023/09/13 02:32:11;;;;;;;23.00;19.55;;;20.10;78.50;;;;;;5058896;28;20109;-72
2023/09/13 02:34:44;;;;;;;27.20;22.67;;;20.10;78.30;;;;;;5059427;28;20040;-69
2023/09/13 02:37:28;;;;;;;29.85;24.08;;;20.00;78.10;;;;;;5058808;28;20028;-68
2023/09/13 02:39:58;;;;;;;27.23;20.75;;;20.00;78.10;;;;;;5059343;28;20029;-68
2023/09/13 02:42:28;;;;;;;31.10;23.92;;;19.90;78.10;;;;;;5058557;28;20029;-69
2023/09/13 02:44:58;;;;;;;32.92;24.33;;;19.90;78.10;;;;;;5058566;28;20055;-67
2023/09/13 02:47:27;;;;;;;27.13;23.35;;;19.90;78.30;;;;;;5058503;28;20347;-67
2023/09/13 02:50:02;;;;;;;28.33;22.02;;;19.90;78.20;;;;;;5058647;28;20036;-68
2023/09/13 02:52:33;;;;;;;26.15;21.02;;;19.90;78.30;;;;;;5058440;28;20443;-72
2023/09/13 02:55:00;;;;;;;27.05;22.52;;;19.80;78.30;;;;;;5058469;28;20040;-72
2023/09/13 02:57:27;;;;;;;33.38;24.73;;;19.70;78.30;;;;;;5040757;28;20029;-70
2023/09/13 02:59:56;;;;;;;29.77;22.65;;;19.70;78.40;;;;;;5058389;28;20028;-69
2023/09/13 03:02:22;;;;;;;29.58;22.25;;;19.60;78.50;;;;;;5058310;28;20029;-71
2023/09/13 03:04:52;;;;;;;26.52;21.15;;;19.50;78.60;;;;;;5058348;28;20024;-68
2023/09/13 03:07:31;;;;;;;31.92;22.63;;;19.50;78.70;;;;;;5058623;28;20036;-70
2023/09/13 03:09:58;;;;;;;26.65;21.42;;;19.50;78.80;;;;;;5058010;28;20423;-70
2023/09/13 03:12:24;;;;;;;28.45;22.50;;;19.50;78.70;;;;;;5058097;28;20104;-72
2023/09/13 03:14:58;;;;;;;25.83;21.70;;;19.50;78.80;;;;;;5058181;28;20035;-68
2023/09/13 03:17:25;;;;;;;26.55;21.23;;;19.40;78.80;;;;;;5058243;28;20036;-71
2023/09/13 03:19:51;;;;;;;25.88;19.58;;;19.50;79.00;;;;;;5058046;28;20036;-68
2023/09/13 03:22:19;;;;;;;24.48;19.75;;;19.40;79.00;;;;;;5058520;28;20029;-69
2023/09/13 03:24:45;;;;;;;26.25;21.02;;;19.40;78.90;;;;;;5058504;28;20055;-69
2023/09/13 03:27:11;;;;;;;30.50;22.75;;;19.50;78.80;;;;;;5057769;28;20024;-73
2023/09/13 03:29:43;;;;;;;26.95;21.45;;;19.50;78.80;;;;;;5058312;28;20044;-71
2023/09/13 03:32:08;;;;;;;26.25;20.67;;;19.40;78.70;;;;;;5057860;28;20036;-68
2023/09/13 03:34:51;;;;;;;25.52;18.58;;;19.40;78.90;;;;;;5057828;28;20021;-72
2023/09/13 03:37:25;;;;;;;27.03;20.83;;;19.50;78.90;;;;;;5057297;28;20037;-70
2023/09/13 03:39:57;;;;;;;;;;;19.50;78.70;;;;;;5058660;28;20033;-70
2023/09/13 03:42:34;;;;;;;22.30;17.85;;;19.40;79.40;;;;;;5057921;28;19905;-69
2023/09/13 03:45:00;;;;;;;23.65;17.98;;;19.40;78.80;;;;;;5039982;28;20359;-70
2023/09/13 03:47:26;;;;;;;23.60;19.08;;;19.40;78.70;;;;;;5057396;28;20025;-70
2023/09/13 03:49:52;;;;;;;22.23;19.52;;;19.40;78.50;;;;;;5058041;28;20446;-70
2023/09/13 03:52:18;;;;;;;24.83;20.50;;;19.40;78.60;;;;;;5057709;28;20021;-68
2023/09/13 03:54:46;;;;;;;28.73;21.35;;;19.40;78.60;;;;;;5057652;28;20029;-67
2023/09/13 03:57:12;;;;;;;30.50;22.90;;;19.30;78.60;;;;;;5057526;28;20029;-70
2023/09/13 03:59:38;;;;;;;29.08;22.73;;;19.30;78.70;;;;;;5057217;28;20016;-68
2023/09/13 04:02:04;;;;;;;25.75;20.27;;;19.20;78.90;;;;;;5057216;28;20033;-71
2023/09/13 04:04:30;;;;;;;25.00;20.00;;;19.30;79.00;;;;;;5057195;28;20471;-67
2023/09/13 04:06:56;;;;;;;23.67;19.63;;;19.20;79.00;;;;;;5057123;28;20033;-70
2023/09/13 04:09:22;;;;;;;26.17;20.58;;;19.20;79.00;;;;;;5056835;28;20044;-73
2023/09/13 04:11:48;;;;;;;22.42;18.50;;;19.20;79.10;;;;;;5056984;28;20060;-72
2023/09/13 04:14:14;;;;;;;24.15;18.58;;;19.20;79.00;;;;;;5057558;28;20017;-71
2023/09/13 04:16:55;;;;;;;22.60;17.38;;;19.30;79.10;;;;;;5056993;28;20025;-70
2023/09/13 04:19:21;;;;;;;24.63;19.33;;;19.20;79.00;;;;;;5056966;28;20096;-70
2023/09/13 04:21:49;;;;;;;22.48;17.60;;;19.20;79.00;;;;;;5057415;28;20162;-71
2023/09/13 04:24:15;;;;;;;25.77;18.85;;;19.30;79.00;;;;;;5056828;28;20444;-73
2023/09/13 04:26:41;;;;;;;23.95;18.35;;;19.20;79.00;;;;;;5056939;28;20112;-71
2023/09/13 04:29:07;;;;;;;23.40;18.67;;;19.30;79.00;;;;;;5056690;28;20101;-67
2023/09/13 04:31:33;;;;;;;26.45;19.92;;;19.30;79.00;;;;;;5039302;28;20052;-68
2023/09/13 04:33:59;;;;;;;29.90;22.77;;;19.30;79.00;;;;;;5056652;28;20096;-69
2023/09/13 04:36:25;;;;;;;30.85;21.33;;;19.30;79.00;;;;;;5056564;28;20025;-71
2023/09/13 04:38:53;;;;;;;26.75;19.67;;;19.30;79.10;;;;;;5056733;28;20036;-69
2023/09/13 04:41:19;;;;;;;23.30;19.23;;;19.40;78.80;;;;;;5056386;28;20025;-68
2023/09/13 04:43:48;;;;;;;23.63;18.13;;;19.30;79.00;;;;;;5056961;28;20101;-69
2023/09/13 04:46:22;;;;;;;23.00;17.95;;;19.30;78.90;;;;;;5056301;28;20075;-67
2023/09/13 04:48:49;;;;;;;22.52;18.25;;;19.30;78.80;;;;;;5056165;28;20075;-72
2023/09/13 04:51:15;;;;;;;25.27;19.33;;;19.30;78.70;;;;;;5056614;28;20096;-67
2023/09/13 04:53:41;;;;;;;24.17;18.65;;;19.20;78.70;;;;;;5056189;28;20029;-69
2023/09/13 04:56:08;;;;;;;24.17;18.83;;;19.20;78.90;;;;;;5056136;28;20104;-72
2023/09/13 04:58:35;;;;;;;21.92;17.92;;;19.20;79.00;;;;;;5056137;28;20040;-68
2023/09/13 05:01:09;;;;;;;20.77;16.88;;;19.30;78.90;;;;;;5056612;28;20447;-72
2023/09/13 05:03:35;;;;;;;24.75;18.63;;;19.30;78.60;;;;;;5056053;28;20119;-71
2023/09/13 05:06:04;;;;;;;25.65;20.48;;;19.30;78.60;;;;;;5056333;28;20462;-72
2023/09/13 05:08:33;;;;;;;28.27;21.77;;;19.30;78.70;;;;;;5056128;28;20044;-67
2023/09/13 05:10:59;;;;;;;27.98;21.52;;;19.40;78.40;;;;;;5056459;28;20025;-69
2023/09/13 05:13:25;;;;;;;31.08;23.38;;;19.50;78.40;;;;;;5055892;28;20443;-68
2023/09/13 05:15:53;;;;;;;26.88;20.58;;;19.60;78.10;;;;;;5055775;28;20032;-72
2023/09/13 05:18:19;;;;;;;27.40;21.60;;;19.70;78.00;;;;;;5055654;28;20075;-71
2023/09/13 05:20:45;;;;;;;25.90;20.80;;;19.80;78.20;;;;;;5055933;28;20025;-72
2023/09/13 05:23:10;;;;;;;29.33;22.58;;;19.90;78.00;;;;;;5055962;28;20407;-69
2023/09/13 05:25:44;;;;;;;26.60;20.15;;;20.00;78.10;;;;;;5055608;28;20071;-72
2023/09/13 05:28:19;;;;;;;26.58;20.35;;;20.30;77.80;;;;;;5055386;28;20047;-73
2023/09/13 05:30:57;;;;;;;26.15;20.52;;;20.60;77.50;;;;;;5055549;28;20040;-69
2023/09/13 05:33:25;;;;;;;29.17;21.10;;;20.90;77.10;;;;;;5056150;28;20024;-68
2023/09/13 05:35:57;;;;;;;26.95;20.63;;;21.30;76.90;;;;;;5055590;28;20459;-70
2023/09/13 05:38:24;;;;;;;25.17;19.42;;;21.40;76.10;;;;;;5055153;28;20029;-72
2023/09/13 05:40:55;;;;;;;24.83;19.05;;;21.50;75.70;;;;;;5055843;28;20084;-67
2023/09/13 05:43:22;;;;;;;25.70;20.00;;;21.50;75.50;;;;;;5037724;28;20362;-67
2023/09/13 05:45:52;;;;;;;23.98;19.55;;;21.50;75.50;;;;;;5055583;28;20025;-68
2023/09/13 05:48:19;;;;;;;22.63;18.65;;;21.50;75.40;;;;;;5055308;28;20040;-68
2023/09/13 05:50:45;;;;;;;22.63;18.55;;;21.50;75.40;;;;;;5055839;28;20021;-68
2023/09/13 05:53:13;;;;;;;24.70;19.45;;;21.50;75.40;;;;;;5055327;28;20100;-66
2023/09/13 05:55:48;;;;;;;26.45;20.20;;;21.50;75.50;;;;;;5055156;28;20053;-69
2023/09/13 05:58:14;;;;;;;28.83;21.98;;;21.70;75.70;;;;;;5055332;28;20455;-69
2023/09/13 06:00:47;;;;;;;24.95;20.63;;;21.80;75.80;;;;;;5055201;28;20112;-73
2023/09/13 06:03:15;;;;;;;31.52;23.30;;;22.20;75.50;;;;;;5055458;28;20032;-67
2023/09/13 06:05:41;;;;;;;30.10;22.30;;;22.90;74.70;;;;;;5055384;28;20017;-67
2023/09/13 06:08:07;;;;;;;28.50;22.30;;;23.60;72.70;;;;;;5055015;28;20033;-76
2023/09/13 06:10:33;;;;;;;26.17;20.38;;;24.00;71.50;;;;;;5037307;28;20041;-69
2023/09/13 06:12:59;;;;;;;26.63;21.05;;;24.10;70.80;;;;;;5055305;28;20043;-76
2023/09/13 06:15:25;;;;;;;27.40;21.77;;;24.40;70.50;;;;;;5055043;28;20009;-73
2023/09/13 06:17:51;;;;;;;25.65;19.13;;;24.80;69.40;;;;;;5054954;28;20443;-74
2023/09/13 06:20:17;;;;;;;24.52;19.33;;;25.20;68.70;;;;;;5055221;28;20171;-66
2023/09/13 06:22:43;;;;;;;23.42;20.13;;;25.30;68.20;;;;;;5055245;28;20029;-66
2023/09/13 06:25:09;;;;;;;29.23;21.08;;;25.40;67.80;;;;;;5037847;28;20036;-65
2023/09/13 06:27:35;;;;;;;25.50;20.15;;;25.70;67.30;;;;;;5055325;28;20039;-65
2023/09/13 06:30:02;;;;;;;25.55;20.23;;;26.10;66.40;;;;;;5055155;28;20017;-68
2023/09/13 06:32:28;;;;;;;24.25;19.77;;;26.50;65.60;;;;;;5054846;28;20039;-72
2023/09/13 06:34:58;;;;;;;24.00;19.50;;;27.00;64.30;;;;;;5055136;28;20071;-73
2023/09/13 06:37:25;;;;;;;24.48;19.50;;;27.40;63.20;;;;;;5055024;28;20455;-73
2023/09/13 06:39:52;;;;;;;22.38;19.30;;;27.80;62.80;;;;;;5055112;28;20029;-67
2023/09/13 06:42:18;;;;;;;21.50;18.73;;;27.90;61.70;;;;;;5054801;28;20116;-67
2023/09/13 06:44:44;;;;;;;24.33;18.98;;;27.70;61.50;;;;;;5055363;28;20052;-74
2023/09/13 06:47:14;;;;;;;21.20;18.65;;;27.40;62.00;;;;;;5054920;28;20099;-66
2023/09/13 06:49:40;;;;;;;23.48;19.25;;;27.30;62.40;;;;;;5055220;28;20032;-66
2023/09/13 06:52:07;;;;;;;25.35;20.75;;;27.30;62.70;;;;;;5054938;28;20021;-72
2023/09/13 06:54:38;;;;;;;23.75;20.35;;;27.30;62.70;;;;;;5055285;28;20025;-68
2023/09/13 06:57:08;;;;;;;24.95;20.55;;;27.40;62.70;;;;;;5055284;28;20447;-67
2023/09/13 06:59:34;;;;;;;22.05;19.27;;;27.60;62.20;;;;;;5054610;28;20495;-71
2023/09/13 07:02:00;;;;;;;23.38;20.38;;;27.90;61.50;;;;;;5054927;28;20029;-70
2023/09/13 07:04:26;;;;;;;20.92;18.50;;;27.90;60.90;;;;;;5054652;28;20035;-67
2023/09/13 07:06:54;;;;;;;24.73;19.95;;;27.80;60.70;;;;;;5054494;28;20439;-67
2023/09/13 07:09:21;;;;;;;27.38;20.98;;;27.40;61.00;;;;;;5054113;28;20516;-67
2023/09/13 07:11:48;;;;;;;21.75;19.20;;;27.00;62.10;;;;;;5056396;28;20076;-68
2023/09/13 07:14:17;;;;;;;22.58;19.83;;;26.50;63.20;;;;;;5058057;28;20045;-67
2023/09/13 07:16:42;;;;;;;24.52;20.48;;;26.10;64.20;;;;;;5058157;28;20016;-70
2023/09/13 07:19:08;;;;;;;22.85;20.05;;;25.80;65.20;;;;;;5058184;28;20433;-69
2023/09/13 07:21:34;;;;;;;24.67;21.48;;;25.60;66.10;;;;;;5058092;28;20040;-70
2023/09/13 07:24:09;;;;;;;29.13;23.25;;;25.40;66.70;;;;;;5040380;28;20027;-68
2023/09/13 07:26:35;;;;;;;24.52;21.35;;;25.20;67.60;;;;;;5057781;28;20065;-70
2023/09/13 07:29:01;;;;;;;28.95;23.10;;;25.00;68.00;;;;;;5057856;28;20056;-69
2023/09/13 07:31:34;;;;;;;26.02;21.23;;;24.90;68.50;;;;;;5057854;28;20439;-69
2023/09/13 07:34:02;;;;;;;27.70;22.23;;;24.80;69.00;;;;;;5058128;28;20025;-69
2023/09/13 07:36:29;;;;;;;23.35;20.42;;;24.70;69.20;;;;;;5057455;28;20032;-66
2023/09/13 07:38:55;;;;;;;25.50;21.05;;;24.60;69.50;;;;;;5057444;28;20036;-70
2023/09/13 07:41:21;;;;;;;27.38;22.35;;;24.60;69.90;;;;;;5058249;28;20029;-69
2023/09/13 07:43:59;;;;;;;28.23;23.48;;;24.40;70.20;;;;;;5058212;28;20180;-68
2023/09/13 07:46:31;;;;;;;23.30;20.58;;;24.40;70.50;;;;;;5057579;28;20029;-67
2023/09/13 07:48:57;;;;;;;24.08;19.73;;;24.40;70.60;;;;;;5058060;28;20474;-67
2023/09/13 07:51:23;;;;;;;23.13;20.38;;;24.40;70.60;;;;;;5057521;28;20025;-68
2023/09/13 07:53:53;;;;;;;25.08;20.50;;;24.40;70.70;;;;;;5057435;28;20100;-69
2023/09/13 07:56:20;;;;;;;27.17;22.13;;;24.40;70.70;;;;;;5040211;28;20451;-68
2023/09/13 07:58:45;;;;;;;30.60;24.35;;;24.40;70.80;;;;;;5057045;28;20028;-70
2023/09/13 08:01:11;;;;;;;24.55;20.73;;;24.30;70.90;;;;;;5057216;28;20025;-68
2023/09/13 08:03:37;;;;;;;24.38;18.25;;;24.30;71.10;;;;;;5057183;28;20379;-69
2023/09/13 08:06:03;;;;;;;21.67;18.15;;;24.20;71.50;;;;;;5057692;28;20029;-67
2023/09/13 08:08:32;;;;;;;26.85;23.08;;;24.20;71.70;;;;;;5057002;28;20033;-66
2023/09/13 08:10:58;;;;;;;26.05;21.65;;;24.20;72.50;;;;;;5056962;28;20045;-69
2023/09/13 08:13:25;;;;;;;29.60;23.27;;;24.20;72.20;;;;;;5057279;28;20458;-68
2023/09/13 08:15:51;;;;;;;26.95;21.48;;;24.10;72.50;;;;;;5056949;28;20344;-70
2023/09/13 08:18:18;;;;;;;27.75;22.90;;;24.00;72.70;;;;;;5056877;28;20029;-67
2023/09/13 08:20:44;;;;;;;28.73;22.80;;;23.90;73.20;;;;;;5056915;28;20025;-69
2023/09/13 08:23:10;;;;;;;25.23;20.90;;;23.90;73.30;;;;;;5056280;28;20025;-70
2023/09/13 08:25:36;;;;;;;23.17;20.35;;;23.90;73.40;;;;;;5057043;28;20028;-69
2023/09/13 08:28:03;;;;;;;25.75;22.95;;;23.90;73.50;;;;;;5056571;28;20036;-68
2023/09/13 08:30:31;;;;;;;21.52;19.33;;;24.00;73.70;;;;;;5056613;28;20070;-68
2023/09/13 08:32:57;;;;;;;27.98;21.63;;;23.90;73.80;;;;;;5056623;28;20021;-71
2023/09/13 08:35:23;;;;;;;27.75;21.88;;;24.00;73.80;;;;;;5057174;28;20040;-70
2023/09/13 08:37:49;;;;;;;21.58;19.05;;;24.00;74.00;;;;;;5056673;28;20028;-67
2023/09/13 08:40:15;;;;;;;25.80;21.63;;;24.00;74.00;;;;;;5056464;28;20366;-68
2023/09/13 08:42:42;;;;;;;22.95;19.58;;;24.00;74.00;;;;;;5056730;28;20029;-71
2023/09/13 08:45:09;;;;;;;22.10;19.45;;;24.10;74.00;;;;;;5056414;28;20120;-69
2023/09/13 08:47:42;;;;;;;25.35;19.48;;;24.10;74.10;;;;;;5056255;28;20488;-67
2023/09/13 08:50:08;;;;;;;28.17;22.02;;;24.10;74.50;;;;;;5056432;28;20109;-69
2023/09/13 08:52:37;;;;;;;29.23;23.15;;;24.20;74.70;;;;;;5038385;28;20021;-68
2023/09/13 08:55:06;;;;;;;25.17;21.42;;;24.20;74.80;;;;;;5054096;28;20027;-71
2023/09/13 08:57:33;;;;;;;23.05;18.90;;;24.10;75.00;;;;;;5055823;28;20359;-68
2023/09/13 09:00:14;;;;;;;23.38;19.20;;;24.10;74.60;;;;;;5056067;28;20017;-70
2023/09/13 09:02:42;;;;;;;25.88;20.27;;;24.10;74.60;;;;;;5054813;28;20033;-68
2023/09/13 09:05:12;;;;;;;25.45;19.95;;;24.10;74.50;;;;;;5056045;28;20033;-68
2023/09/13 09:07:40;;;;;;;23.52;20.15;;;24.00;74.50;;;;;;5055793;28;20036;-67
2023/09/13 09:10:11;;;;;;;24.30;19.50;;;24.00;74.50;;;;;;5055939;28;20053;-69
2023/09/13 09:12:43;;;;;;;20.38;17.38;;;24.00;74.60;;;;;;5055840;28;20040;-68
2023/09/13 09:15:11;;;;;;;24.55;20.50;;;24.00;74.40;;;;;;5038291;28;20024;-68
2023/09/13 09:17:39;;;;;;;26.55;20.83;;;24.00;74.50;;;;;;5056195;28;20025;-67
2023/09/13 09:20:06;;;;;;;21.75;17.73;;;23.90;74.30;;;;;;5056059;28;20072;-70
2023/09/13 09:22:32;;;;;;;29.45;22.00;;;23.80;74.20;;;;;;5056224;28;20052;-71
2023/09/13 09:24:59;;;;;;;21.75;17.80;;;23.80;74.40;;;;;;5055961;28;20029;-71
2023/09/13 09:27:25;;;;;;;18.98;16.40;;;23.70;74.50;;;;;;5055703;28;20044;-68
2023/09/13 09:30:03;;;;;;;21.08;18.48;;;23.80;74.40;;;;;;5055605;28;20021;-67
2023/09/13 09:32:29;;;;;;;26.45;20.40;;;23.80;74.50;;;;;;5038484;28;20351;-66
2023/09/13 09:34:59;;;;;;;28.15;23.23;;;23.90;74.50;;;;;;5055627;28;20028;-66
2023/09/13 09:37:33;;;;;;;25.65;20.63;;;23.90;74.40;;;;;;5055718;28;20021;-67
2023/09/13 09:39:59;;;;;;;26.60;19.83;;;23.90;74.50;;;;;;5055938;28;20031;-66
2023/09/13 09:42:25;;;;;;;26.55;21.20;;;24.00;74.30;;;;;;5055694;28;20029;-68
2023/09/13 09:44:52;;;;;;;29.17;22.15;;;24.10;74.40;;;;;;5055678;28;20033;-71
2023/09/13 09:47:20;;;;;;;26.67;21.15;;;24.20;74.70;;;;;;5055500;28;20052;-71
2023/09/13 09:49:47;;;;;;;28.00;22.13;;;24.30;74.30;;;;;;5055528;28;20103;-71
2023/09/13 09:52:16;;;;;;;24.60;20.98;;;24.40;73.90;;;;;;5055550;28;20051;-69
2023/09/13 09:54:49;;;;;;;25.30;21.88;;;24.40;73.70;;;;;;5055246;28;20204;-69
2023/09/13 09:57:22;;;;;;;27.98;20.33;;;24.50;73.60;;;;;;5038337;28;20175;-68
2023/09/13 09:59:49;;;;;;;;;;;24.60;73.40;;;;;;5055875;28;20036;-69
2023/09/13 10:02:15;;;;;;;27.70;22.23;;;24.60;74.90;;;;;;5055417;28;19944;-67
2023/09/13 10:04:45;;;;;;;26.08;21.30;;;24.70;73.60;;;;;;5055660;28;20513;-67
2023/09/13 10:07:11;;;;;;;26.02;20.42;;;24.70;73.70;;;;;;5055305;28;20135;-69
2023/09/13 10:09:45;;;;;;;27.60;21.58;;;24.80;73.60;;;;;;5055177;28;20057;-68
2023/09/13 10:12:12;;;;;;;29.48;23.17;;;24.90;73.50;;;;;;5038939;28;20021;-67
2023/09/13 10:14:43;;;;;;;23.60;21.10;;;24.90;73.60;;;;;;5037588;28;20025;-71
2023/09/13 10:17:10;;;;;;;25.40;22.33;;;25.00;73.70;;;;;;5037922;28;20028;-70
2023/09/13 10:19:36;;;;;;;25.55;20.98;;;25.00;73.50;;;;;;5055266;28;20044;-71
2023/09/13 10:22:03;;;;;;;25.05;21.63;;;24.90;73.60;;;;;;5038262;28;20025;-69
2023/09/13 10:24:36;;;;;;;24.20;20.95;;;24.90;73.90;;;;;;5037845;28;20025;-67
2023/09/13 10:27:11;;;;;;;23.63;20.85;;;24.90;73.80;;;;;;5037339;28;20364;-69
2023/09/13 10:29:48;;;;;;;26.17;22.33;;;24.80;74.30;;;;;;5055184;28;20439;-67
2023/09/13 10:32:16;;;;;;;25.52;22.83;;;24.80;74.30;;;;;;5055506;28;20021;-71
2023/09/13 10:34:52;;;;;;;25.73;22.85;;;24.70;74.70;;;;;;5037472;28;20055;-71
2023/09/13 10:37:43;;;;;;;26.23;22.85;;;24.70;75.00;;;;;;5054874;28;20037;-68
2023/09/13 10:40:27;;;;;;;25.58;22.23;;;24.70;75.00;;;;;;5055501;28;20108;-68
2023/09/13 10:43:00;;;;;;;25.55;22.83;;;24.90;75.30;;;;;;5055502;28;20021;-71
2023/09/13 10:45:27;;;;;;;23.92;21.30;;;25.00;74.90;;;;;;5055170;28;20040;-68
2023/09/13 10:47:54;;;;;;;26.90;23.50;;;25.10;74.40;;;;;;5058716;28;20029;-69
2023/09/13 10:50:21;;;;;;;25.52;21.77;;;25.20;74.10;;;;;;5041696;28;20036;-72
2023/09/13 10:52:49;;;;;;;25.33;21.10;;;25.30;74.20;;;;;;5058992;28;20021;-70
2023/09/13 10:55:16;;;;;;;23.33;19.65;;;25.30;73.40;;;;;;5057751;28;20036;-68
2023/09/13 10:57:43;;;;;;;22.48;19.05;;;25.40;72.50;;;;;;5057644;28;20506;-71
2023/09/13 11:00:11;;;;;;;23.88;21.23;;;25.50;71.80;;;;;;5058581;28;20039;-68
2023/09/13 11:02:40;;;;;;;21.55;19.23;;;25.50;71.70;;;;;;5059013;28;20082;-70
2023/09/13 11:05:10;;;;;;;23.63;18.65;;;25.60;72.00;;;;;;5058476;28;20032;-69
2023/09/13 11:07:47;;;;;;;21.85;18.00;;;25.70;71.70;;;;;;5058953;28;20116;-68
2023/09/13 11:10:14;;;;;;;21.20;19.00;;;25.80;71.30;;;;;;5057837;28;20510;-68
2023/09/13 11:12:44;;;;;;;24.13;20.02;;;25.90;70.70;;;;;;5058862;28;20101;-69
2023/09/13 11:15:19;;;;;;;21.35;17.70;;;25.90;70.60;;;;;;5058605;28;20029;-68
2023/09/13 11:17:45;;;;;;;21.67;18.20;;;26.00;70.10;;;;;;5058530;28;20021;-69
2023/09/13 11:20:52;;;;;;;20.95;18.05;;;26.00;70.10;;;;;;5058196;28;20355;-69
2023/09/13 11:23:18;;;;;;;23.73;19.85;;;26.10;69.70;;;;;;4977998;28;20473;-70
2023/09/13 11:26:02;;;;;;;21.48;18.45;;;26.10;69.50;;;;;;4977851;28;20059;-68
2023/09/13 11:28:29;;;;;;;24.20;19.48;;;26.10;69.50;;;;;;4962123;28;20097;-68
2023/09/13 11:31:00;;;;;;;20.52;18.33;;;26.20;69.40;;;;;;4977891;28;20039;-68
2023/09/13 11:33:29;;;;;;;20.10;17.58;;;26.30;69.20;;;;;;4961577;28;20110;-68
2023/09/13 11:35:57;;;;;;;21.38;18.42;;;26.30;69.00;;;;;;4977740;28;20081;-70
2023/09/13 11:38:24;;;;;;;19.17;16.95;;;26.30;68.40;;;;;;4961472;28;20034;-68
2023/09/13 11:40:55;;;;;;;20.65;16.65;;;26.30;68.70;;;;;;4961990;28;20077;-70
2023/09/13 11:43:26;;;;;;;16.50;14.80;;;26.30;68.60;;;;;;4978058;28;20038;-68
2023/09/13 11:45:57;;;;;;;20.13;17.98;;;26.30;68.40;;;;;;4977593;28;20369;-70
2023/09/13 11:48:32;;;;;;;21.98;18.85;;;26.30;68.30;;;;;;4944998;28;20031;-67
2023/09/13 11:51:10;;;;;;;20.77;18.58;;;26.30;68.20;;;;;;4977337;28;20186;-70
2023/09/13 11:53:36;;;;;;;20.63;18.15;;;26.40;67.80;;;;;;4977375;28;20031;-69
2023/09/13 11:56:02;;;;;;;19.08;17.05;;;26.40;67.70;;;;;;4981115;28;20492;-69
2023/09/13 11:58:36;;;;;;;19.92;17.70;;;26.60;67.40;;;;;;5057331;28;20029;-68
2023/09/13 12:01:07;;;;;;;16.48;14.77;;;26.90;66.40;;;;;;5057473;28;20035;-71
2023/09/13 12:03:39;;;;;;;16.55;14.82;;;27.10;66.00;;;;;;5040891;28;20120;-70
2023/09/13 12:06:06;;;;;;;17.52;15.70;;;27.40;65.70;;;;;;5057502;28;20031;-69
2023/09/13 12:08:36;;;;;;;15.23;13.63;;;27.60;64.90;;;;;;5023113;28;20021;-69
2023/09/13 12:11:09;;;;;;;15.38;13.77;;;27.70;64.40;;;;;;5036238;28;20045;-69
2023/09/13 12:13:47;;;;;;;16.70;14.68;;;27.80;63.80;;;;;;5037359;28;20355;-70
2023/09/13 12:16:14;;;;;;;16.67;14.77;;;27.90;63.20;;;;;;5037517;28;20080;-68
2023/09/13 12:18:42;;;;;;;17.92;14.65;;;27.90;62.40;;;;;;5035597;28;20517;-69
2023/09/13 12:21:10;;;;;;;16.02;13.65;;;27.90;62.10;;;;;;5037160;28;20367;-69
2023/09/13 12:23:38;;;;;;;15.20;13.60;;;28.00;62.00;;;;;;5036557;28;20035;-68
2023/09/13 12:26:09;;;;;;;15.48;13.82;;;28.10;61.50;;;;;;5037064;28;20490;-69
2023/09/13 12:28:36;;;;;;;16.50;14.40;;;28.10;61.60;;;;;;5037198;28;20045;-71
2023/09/13 12:31:15;;;;;;;17.00;13.38;;;28.30;61.60;;;;;;5037299;28;20032;-68
2023/09/13 12:33:43;;;;;;;14.55;13.02;;;28.40;61.20;;;;;;5037559;28;20032;-69
2023/09/13 12:36:10;;;;;;;14.20;12.70;;;28.50;61.00;;;;;;5037500;28;20097;-69
2023/09/13 12:38:42;;;;;;;15.23;13.40;;;28.50;60.70;;;;;;5035865;28;20041;-71
2023/09/13 12:41:12;;;;;;;17.25;15.00;;;28.60;60.20;;;;;;5037362;28;20061;-69